메인 페이지
METAR-TAF:

METAR-TAF

공항 :

Merzifon, 터키

위도: 40-51N, 경도: 035-35E, 고도: 545m

현재 날씨관측

예보는 21분 전, 08:50시(UTC)에 발표되었습니다.
무풍
온도 5°C
습도 75%
기압 1018 hPa
시정 10km 이상
고도 2000ft 상공 구름 보통
고도 3300ft 상공 구름 많음
고도 7000ft 상공 구름 많음

METAR: LTAP 090850Z 00000KT 9999 SCT020 BKN033 BKN070 05/01 Q1018 NOSIG RMK RWY23 VRB01KT

시각: 12:11 (09:11 UTC)

예보

예보는 4 시간 31분 전, 04:40시(UTC)에 발표되었습니다.
예보 대상 시간: 09일 06시부터 10일 06시까지 (UTC)
여러 방향의 바람 2kt
시정: 6000m
고도 2000ft 상공 구름 보통
고도 3300ft 상공 구름 많음
일시적
09일 06시부터 09일 08시까지 (UTC)
약한눈
전환 중
09일 08시부터 09일 11시까지 (UTC)
고도 4000ft 상공 구름 보통
고도 9000ft 상공 구름 많음
전환 중
09일 21시부터 09일 24시까지 (UTC)
시정 10km 이상
1500m 미만 상공 구름 및 적란운 없음
확률 40% :
일시적
10일 02시부터 10일 06시까지 (UTC)
시정: 2500m
고도 1000ft 상공 구름 보통
박무

TAF: LTAP 090440Z 0906/1006 VRB02KT 6000 SCT020 BKN033 TEMPO 0906/0908 -SN BECMG 0908/0911 SCT040 BKN090 BECMG 0921/0924 CAVOK PROB40 TEMPO 1002/1006 2500 BR SCT010

4,000개 이상의 공항 관측 자료 및 예보 (METAR 및 TAF 보고).

지도상에서 검색 가능한 기상관측소가 노란 점과 빨간 점으로 표시되어 있습니다.

기상관측소 명을 보려면 표시 위로 마우스를 이동하세요.

날씨 관측과 예보를 보려면 클릭하세요.

지도 변경 : 확대하려면 엑스 표시가 있는 녹색 버튼, 축소하려면 빼기 표시가 있는 녹색 버튼, 다음 페이지의 지도를 보려면 녹색 화살표를 클릭하세요.


METAR-TAF: